sensor_id;sensor_type;location;lat;lon;timestamp;temperature;humidity
35523;DHT22;61478;50.820;4.330;2023-04-25T00:01:23;12.10;99.90
35523;DHT22;61478;50.820;4.330;2023-04-25T00:03:50;12.10;99.90
35523;DHT22;61478;50.820;4.330;2023-04-25T00:06:16;12.10;99.90
35523;DHT22;61478;50.820;4.330;2023-04-25T00:08:43;12.00;99.90
35523;DHT22;61478;50.820;4.330;2023-04-25T00:11:10;12.00;99.90
35523;DHT22;61478;50.820;4.330;2023-04-25T00:13:36;12.10;99.90
35523;DHT22;61478;50.820;4.330;2023-04-25T00:16:02;12.20;99.90
35523;DHT22;61478;50.820;4.330;2023-04-25T00:18:30;12.30;99.90
35523;DHT22;61478;50.820;4.330;2023-04-25T00:20:59;12.20;99.90
35523;DHT22;61478;50.820;4.330;2023-04-25T00:23:25;12.20;99.90
35523;DHT22;61478;50.820;4.330;2023-04-25T00:25:51;12.20;99.90
35523;DHT22;61478;50.820;4.330;2023-04-25T00:28:18;12.20;99.90
35523;DHT22;61478;50.820;4.330;2023-04-25T00:30:44;12.20;99.90
35523;DHT22;61478;50.820;4.330;2023-04-25T00:33:10;12.20;99.90
35523;DHT22;61478;50.820;4.330;2023-04-25T00:35:36;12.20;99.90
35523;DHT22;61478;50.820;4.330;2023-04-25T00:38:02;12.20;99.90
35523;DHT22;61478;50.820;4.330;2023-04-25T00:40:28;12.10;99.90
35523;DHT22;61478;50.820;4.330;2023-04-25T00:42:55;12.00;99.90
35523;DHT22;61478;50.820;4.330;2023-04-25T00:45:21;12.10;99.90
35523;DHT22;61478;50.820;4.330;2023-04-25T00:47:58;12.10;99.90
35523;DHT22;61478;50.820;4.330;2023-04-25T00:50:25;12.10;99.90
35523;DHT22;61478;50.820;4.330;2023-04-25T00:52:51;12.00;99.90
35523;DHT22;61478;50.820;4.330;2023-04-25T00:55:17;12.00;99.90
35523;DHT22;61478;50.820;4.330;2023-04-25T00:57:44;11.90;99.90
35523;DHT22;61478;50.820;4.330;2023-04-25T01:00:11;11.80;99.90
35523;DHT22;61478;50.820;4.330;2023-04-25T01:02:41;11.80;99.90
35523;DHT22;61478;50.820;4.330;2023-04-25T01:05:11;11.80;99.90
35523;DHT22;61478;50.820;4.330;2023-04-25T01:07:40;11.60;99.90
35523;DHT22;61478;50.820;4.330;2023-04-25T01:10:06;11.80;99.90
35523;DHT22;61478;50.820;4.330;2023-04-25T01:12:34;11.80;99.90
35523;DHT22;61478;50.820;4.330;2023-04-25T01:15:00;11.80;99.90
35523;DHT22;61478;50.820;4.330;2023-04-25T01:17:27;11.90;99.90
35523;DHT22;61478;50.820;4.330;2023-04-25T01:19:53;11.90;99.90
35523;DHT22;61478;50.820;4.330;2023-04-25T01:22:19;11.90;99.90
35523;DHT22;61478;50.820;4.330;2023-04-25T01:24:46;11.90;99.90
35523;DHT22;61478;50.820;4.330;2023-04-25T01:27:13;11.80;99.90
35523;DHT22;61478;50.820;4.330;2023-04-25T01:29:39;11.80;99.90
35523;DHT22;61478;50.820;4.330;2023-04-25T01:32:08;11.90;99.90
35523;DHT22;61478;50.820;4.330;2023-04-25T01:34:38;11.90;99.90
35523;DHT22;61478;50.820;4.330;2023-04-25T01:37:04;11.80;99.90
35523;DHT22;61478;50.820;4.330;2023-04-25T01:39:30;11.80;99.90
35523;DHT22;61478;50.820;4.330;2023-04-25T01:41:56;11.70;99.90
35523;DHT22;61478;50.820;4.330;2023-04-25T01:44:22;11.70;99.90
35523;DHT22;61478;50.820;4.330;2023-04-25T01:46:48;11.70;99.90
35523;DHT22;61478;50.820;4.330;2023-04-25T01:49:14;11.70;99.90
35523;DHT22;61478;50.820;4.330;2023-04-25T01:51:40;11.70;99.90
35523;DHT22;61478;50.820;4.330;2023-04-25T01:54:07;11.60;99.90
35523;DHT22;61478;50.820;4.330;2023-04-25T01:56:37;11.60;99.90
35523;DHT22;61478;50.820;4.330;2023-04-25T01:59:04;11.60;99.90
35523;DHT22;61478;50.820;4.330;2023-04-25T02:01:31;11.60;99.90
35523;DHT22;61478;50.820;4.330;2023-04-25T02:03:57;11.60;99.90
35523;DHT22;61478;50.820;4.330;2023-04-25T02:06:24;11.60;99.90
35523;DHT22;61478;50.820;4.330;2023-04-25T02:08:52;11.60;99.90
35523;DHT22;61478;50.820;4.330;2023-04-25T02:11:18;11.50;99.90
35523;DHT22;61478;50.820;4.330;2023-04-25T02:13:45;11.50;99.90
35523;DHT22;61478;50.820;4.330;2023-04-25T02:16:11;11.50;99.90
35523;DHT22;61478;50.820;4.330;2023-04-25T02:18:37;11.50;99.90
35523;DHT22;61478;50.820;4.330;2023-04-25T02:21:03;11.50;99.90
35523;DHT22;61478;50.820;4.330;2023-04-25T02:23:29;11.40;99.90
35523;DHT22;61478;50.820;4.330;2023-04-25T02:25:56;11.40;99.90
35523;DHT22;61478;50.820;4.330;2023-04-25T02:28:24;11.40;99.90
35523;DHT22;61478;50.820;4.330;2023-04-25T02:30:51;11.30;99.90
35523;DHT22;61478;50.820;4.330;2023-04-25T02:33:17;11.30;99.90
35523;DHT22;61478;50.820;4.330;2023-04-25T02:35:43;11.30;99.90
35523;DHT22;61478;50.820;4.330;2023-04-25T02:38:10;11.30;99.90
35523;DHT22;61478;50.820;4.330;2023-04-25T02:40:36;11.30;99.90
35523;DHT22;61478;50.820;4.330;2023-04-25T02:43:02;11.40;99.90
35523;DHT22;61478;50.820;4.330;2023-04-25T02:45:28;11.40;99.90
35523;DHT22;61478;50.820;4.330;2023-04-25T02:47:54;11.40;99.90
35523;DHT22;61478;50.820;4.330;2023-04-25T02:50:20;11.40;99.90
35523;DHT22;61478;50.820;4.330;2023-04-25T02:52:46;11.30;99.90
35523;DHT22;61478;50.820;4.330;2023-04-25T02:55:13;11.30;99.90
35523;DHT22;61478;50.820;4.330;2023-04-25T02:57:39;11.40;99.90
35523;DHT22;61478;50.820;4.330;2023-04-25T03:00:06;11.30;99.90
35523;DHT22;61478;50.820;4.330;2023-04-25T03:02:32;11.30;99.90
35523;DHT22;61478;50.820;4.330;2023-04-25T03:04:58;11.40;99.90
35523;DHT22;61478;50.820;4.330;2023-04-25T03:07:25;11.40;99.90
35523;DHT22;61478;50.820;4.330;2023-04-25T03:09:51;11.40;99.90
35523;DHT22;61478;50.820;4.330;2023-04-25T03:12:17;11.40;99.90
35523;DHT22;61478;50.820;4.330;2023-04-25T03:14:42;11.40;99.90
35523;DHT22;61478;50.820;4.330;2023-04-25T03:17:08;11.40;99.90
35523;DHT22;61478;50.820;4.330;2023-04-25T03:19:34;11.40;99.90
35523;DHT22;61478;50.820;4.330;2023-04-25T03:22:01;11.30;99.90
35523;DHT22;61478;50.820;4.330;2023-04-25T03:24:27;11.40;99.90
35523;DHT22;61478;50.820;4.330;2023-04-25T03:26:53;11.30;99.90
35523;DHT22;61478;50.820;4.330;2023-04-25T03:29:19;11.30;99.90
35523;DHT22;61478;50.820;4.330;2023-04-25T03:31:50;11.20;99.90
35523;DHT22;61478;50.820;4.330;2023-04-25T03:34:16;11.30;99.90
35523;DHT22;61478;50.820;4.330;2023-04-25T03:36:42;11.30;99.90
35523;DHT22;61478;50.820;4.330;2023-04-25T03:39:08;11.20;99.90
35523;DHT22;61478;50.820;4.330;2023-04-25T03:41:34;11.20;99.90
35523;DHT22;61478;50.820;4.330;2023-04-25T03:44:01;11.20;99.90
35523;DHT22;61478;50.820;4.330;2023-04-25T03:46:27;11.20;99.90
35523;DHT22;61478;50.820;4.330;2023-04-25T03:48:52;11.20;99.90
35523;DHT22;61478;50.820;4.330;2023-04-25T03:51:19;11.10;99.90
35523;DHT22;61478;50.820;4.330;2023-04-25T03:53:47;11.10;99.90
35523;DHT22;61478;50.820;4.330;2023-04-25T03:56:14;11.00;99.90
35523;DHT22;61478;50.820;4.330;2023-04-25T03:58:40;11.00;99.90
35523;DHT22;61478;50.820;4.330;2023-04-25T04:01:08;11.00;99.90
35523;DHT22;61478;50.820;4.330;2023-04-25T04:03:35;11.00;99.90
35523;DHT22;61478;50.820;4.330;2023-04-25T04:06:05;11.00;99.90
35523;DHT22;61478;50.820;4.330;2023-04-25T04:08:32;10.90;99.90
35523;DHT22;61478;50.820;4.330;2023-04-25T04:10:58;10.90;99.90
35523;DHT22;61478;50.820;4.330;2023-04-25T04:13:26;10.80;99.90
35523;DHT22;61478;50.820;4.330;2023-04-25T04:15:52;10.80;99.90
35523;DHT22;61478;50.820;4.330;2023-04-25T04:18:18;10.70;99.90
35523;DHT22;61478;50.820;4.330;2023-04-25T04:20:44;10.70;99.90
35523;DHT22;61478;50.820;4.330;2023-04-25T04:23:11;10.80;99.90
35523;DHT22;61478;50.820;4.330;2023-04-25T04:25:38;10.80;99.90
35523;DHT22;61478;50.820;4.330;2023-04-25T04:28:05;10.80;99.90
35523;DHT22;61478;50.820;4.330;2023-04-25T04:30:32;10.90;99.90
35523;DHT22;61478;50.820;4.330;2023-04-25T04:32:59;10.80;99.90
35523;DHT22;61478;50.820;4.330;2023-04-25T04:35:26;10.80;99.90
35523;DHT22;61478;50.820;4.330;2023-04-25T04:37:53;10.80;99.90
35523;DHT22;61478;50.820;4.330;2023-04-25T04:40:20;10.90;99.90
35523;DHT22;61478;50.820;4.330;2023-04-25T04:42:48;10.90;99.90
35523;DHT22;61478;50.820;4.330;2023-04-25T04:45:15;11.00;99.90
35523;DHT22;61478;50.820;4.330;2023-04-25T04:47:41;10.80;99.90
35523;DHT22;61478;50.820;4.330;2023-04-25T04:50:09;10.90;99.90
35523;DHT22;61478;50.820;4.330;2023-04-25T04:52:36;10.70;99.90
35523;DHT22;61478;50.820;4.330;2023-04-25T04:55:04;10.70;99.90
35523;DHT22;61478;50.820;4.330;2023-04-25T04:57:31;10.80;99.90
35523;DHT22;61478;50.820;4.330;2023-04-25T04:59:59;10.80;99.90
35523;DHT22;61478;50.820;4.330;2023-04-25T05:02:25;10.90;99.90
35523;DHT22;61478;50.820;4.330;2023-04-25T05:04:52;10.90;99.90
35523;DHT22;61478;50.820;4.330;2023-04-25T05:07:21;10.80;99.90
35523;DHT22;61478;50.820;4.330;2023-04-25T05:09:50;10.70;99.90
35523;DHT22;61478;50.820;4.330;2023-04-25T05:12:19;10.80;99.90
35523;DHT22;61478;50.820;4.330;2023-04-25T05:14:45;10.60;99.90
35523;DHT22;61478;50.820;4.330;2023-04-25T05:17:11;10.60;99.90
35523;DHT22;61478;50.820;4.330;2023-04-25T05:19:38;10.50;99.90
35523;DHT22;61478;50.820;4.330;2023-04-25T05:22:05;10.40;99.90
35523;DHT22;61478;50.820;4.330;2023-04-25T05:24:30;10.40;99.90
35523;DHT22;61478;50.820;4.330;2023-04-25T05:26:57;10.40;99.90
35523;DHT22;61478;50.820;4.330;2023-04-25T05:29:23;10.50;99.90
35523;DHT22;61478;50.820;4.330;2023-04-25T05:31:49;10.50;99.90
35523;DHT22;61478;50.820;4.330;2023-04-25T05:34:15;10.60;99.90
35523;DHT22;61478;50.820;4.330;2023-04-25T05:36:42;10.40;99.90
35523;DHT22;61478;50.820;4.330;2023-04-25T05:39:08;10.40;99.90
35523;DHT22;61478;50.820;4.330;2023-04-25T05:41:34;10.30;99.90
35523;DHT22;61478;50.820;4.330;2023-04-25T05:44:00;10.30;99.90
35523;DHT22;61478;50.820;4.330;2023-04-25T05:46:27;10.50;99.90
35523;DHT22;61478;50.820;4.330;2023-04-25T05:48:55;10.50;99.90
35523;DHT22;61478;50.820;4.330;2023-04-25T05:51:22;10.50;99.90
35523;DHT22;61478;50.820;4.330;2023-04-25T05:53:48;10.50;99.90
35523;DHT22;61478;50.820;4.330;2023-04-25T05:56:14;10.50;99.90
35523;DHT22;61478;50.820;4.330;2023-04-25T05:58:40;10.50;99.90
35523;DHT22;61478;50.820;4.330;2023-04-25T06:01:06;10.60;99.90
35523;DHT22;61478;50.820;4.330;2023-04-25T06:03:33;10.60;99.90
35523;DHT22;61478;50.820;4.330;2023-04-25T06:05:59;10.60;99.90
35523;DHT22;61478;50.820;4.330;2023-04-25T06:08:24;10.60;99.90
35523;DHT22;61478;50.820;4.330;2023-04-25T06:10:50;10.70;99.90
35523;DHT22;61478;50.820;4.330;2023-04-25T06:13:16;10.70;99.90
35523;DHT22;61478;50.820;4.330;2023-04-25T06:15:42;10.80;99.90
35523;DHT22;61478;50.820;4.330;2023-04-25T06:18:08;10.80;99.90
35523;DHT22;61478;50.820;4.330;2023-04-25T06:20:34;10.80;99.90
35523;DHT22;61478;50.820;4.330;2023-04-25T06:23:00;10.80;99.90
35523;DHT22;61478;50.820;4.330;2023-04-25T06:25:26;10.80;99.90
35523;DHT22;61478;50.820;4.330;2023-04-25T06:27:52;10.80;99.90
35523;DHT22;61478;50.820;4.330;2023-04-25T06:30:18;10.80;99.90
35523;DHT22;61478;50.820;4.330;2023-04-25T06:32:47;10.80;99.90
35523;DHT22;61478;50.820;4.330;2023-04-25T06:35:13;10.80;99.90
35523;DHT22;61478;50.820;4.330;2023-04-25T06:37:39;10.80;99.90
35523;DHT22;61478;50.820;4.330;2023-04-25T06:40:06;10.90;99.90
35523;DHT22;61478;50.820;4.330;2023-04-25T06:42:32;11.00;99.90
35523;DHT22;61478;50.820;4.330;2023-04-25T06:44:58;11.00;99.90
35523;DHT22;61478;50.820;4.330;2023-04-25T06:47:24;11.00;99.90
35523;DHT22;61478;50.820;4.330;2023-04-25T06:49:50;11.10;99.90
35523;DHT22;61478;50.820;4.330;2023-04-25T06:52:16;11.20;99.90
35523;DHT22;61478;50.820;4.330;2023-04-25T06:54:43;11.20;99.90
35523;DHT22;61478;50.820;4.330;2023-04-25T06:57:10;11.10;99.90
35523;DHT22;61478;50.820;4.330;2023-04-25T06:59:36;11.20;99.90
35523;DHT22;61478;50.820;4.330;2023-04-25T07:02:02;11.30;99.90
35523;DHT22;61478;50.820;4.330;2023-04-25T07:04:29;11.30;99.90
35523;DHT22;61478;50.820;4.330;2023-04-25T07:06:56;11.30;99.90
35523;DHT22;61478;50.820;4.330;2023-04-25T07:09:22;11.30;99.90
35523;DHT22;61478;50.820;4.330;2023-04-25T07:11:48;11.40;99.90
35523;DHT22;61478;50.820;4.330;2023-04-25T07:14:14;11.30;99.90
35523;DHT22;61478;50.820;4.330;2023-04-25T07:16:40;11.30;99.90
35523;DHT22;61478;50.820;4.330;2023-04-25T07:19:07;11.30;99.90
35523;DHT22;61478;50.820;4.330;2023-04-25T07:21:33;11.40;99.90
35523;DHT22;61478;50.820;4.330;2023-04-25T07:23:59;11.40;99.90
35523;DHT22;61478;50.820;4.330;2023-04-25T07:26:25;11.30;99.90
35523;DHT22;61478;50.820;4.330;2023-04-25T07:28:52;11.40;99.90
35523;DHT22;61478;50.820;4.330;2023-04-25T07:31:18;11.50;99.90
35523;DHT22;61478;50.820;4.330;2023-04-25T07:33:44;11.50;99.90
35523;DHT22;61478;50.820;4.330;2023-04-25T07:36:11;11.50;99.90
35523;DHT22;61478;50.820;4.330;2023-04-25T07:38:38;11.60;99.90
35523;DHT22;61478;50.820;4.330;2023-04-25T07:41:04;11.50;99.90
35523;DHT22;61478;50.820;4.330;2023-04-25T07:43:30;11.60;99.90
35523;DHT22;61478;50.820;4.330;2023-04-25T07:45:56;11.70;99.90
35523;DHT22;61478;50.820;4.330;2023-04-25T07:48:22;11.70;99.90
35523;DHT22;61478;50.820;4.330;2023-04-25T07:50:48;11.70;99.90
35523;DHT22;61478;50.820;4.330;2023-04-25T07:53:14;11.80;99.90
35523;DHT22;61478;50.820;4.330;2023-04-25T07:55:40;11.70;99.90
35523;DHT22;61478;50.820;4.330;2023-04-25T07:58:07;11.70;99.90
35523;DHT22;61478;50.820;4.330;2023-04-25T08:00:32;11.80;99.90
35523;DHT22;61478;50.820;4.330;2023-04-25T08:02:59;11.80;99.90
35523;DHT22;61478;50.820;4.330;2023-04-25T08:05:33;11.90;99.90
35523;DHT22;61478;50.820;4.330;2023-04-25T08:07:59;11.90;99.90
35523;DHT22;61478;50.820;4.330;2023-04-25T08:10:25;12.00;99.90
35523;DHT22;61478;50.820;4.330;2023-04-25T08:12:51;11.90;99.90
35523;DHT22;61478;50.820;4.330;2023-04-25T08:15:17;12.00;99.90
35523;DHT22;61478;50.820;4.330;2023-04-25T08:17:43;12.10;99.90
35523;DHT22;61478;50.820;4.330;2023-04-25T08:20:10;12.20;99.90
35523;DHT22;61478;50.820;4.330;2023-04-25T08:22:39;12.20;99.90
35523;DHT22;61478;50.820;4.330;2023-04-25T08:25:05;12.20;99.90
35523;DHT22;61478;50.820;4.330;2023-04-25T08:27:31;12.20;99.90
35523;DHT22;61478;50.820;4.330;2023-04-25T08:29:57;12.20;99.90
35523;DHT22;61478;50.820;4.330;2023-04-25T08:32:24;12.40;99.90
35523;DHT22;61478;50.820;4.330;2023-04-25T08:34:50;12.50;99.90
35523;DHT22;61478;50.820;4.330;2023-04-25T08:37:19;12.60;99.90
35523;DHT22;61478;50.820;4.330;2023-04-25T08:39:46;12.70;99.90
35523;DHT22;61478;50.820;4.330;2023-04-25T08:42:15;12.70;99.90
35523;DHT22;61478;50.820;4.330;2023-04-25T08:44:41;12.70;99.90
35523;DHT22;61478;50.820;4.330;2023-04-25T08:47:10;12.90;99.90
35523;DHT22;61478;50.820;4.330;2023-04-25T08:49:37;13.00;99.90
35523;DHT22;61478;50.820;4.330;2023-04-25T08:52:05;12.90;99.90
35523;DHT22;61478;50.820;4.330;2023-04-25T08:54:32;13.00;99.90
35523;DHT22;61478;50.820;4.330;2023-04-25T08:57:01;13.20;99.90
35523;DHT22;61478;50.820;4.330;2023-04-25T08:59:31;13.70;99.90
35523;DHT22;61478;50.820;4.330;2023-04-25T09:01:58;14.10;99.90
35523;DHT22;61478;50.820;4.330;2023-04-25T09:04:24;14.40;99.90
35523;DHT22;61478;50.820;4.330;2023-04-25T09:06:50;14.70;99.90
35523;DHT22;61478;50.820;4.330;2023-04-25T09:09:16;14.80;99.90
35523;DHT22;61478;50.820;4.330;2023-04-25T09:11:42;14.50;99.90
35523;DHT22;61478;50.820;4.330;2023-04-25T09:14:13;14.20;99.90
35523;DHT22;61478;50.820;4.330;2023-04-25T09:19:31;13.70;99.90
35523;DHT22;61478;50.820;4.330;2023-04-25T09:22:00;13.70;99.90
35523;DHT22;61478;50.820;4.330;2023-04-25T09:24:44;13.80;99.90
35523;DHT22;61478;50.820;4.330;2023-04-25T09:27:20;13.70;99.90
35523;DHT22;61478;50.820;4.330;2023-04-25T09:29:48;13.70;99.90
35523;DHT22;61478;50.820;4.330;2023-04-25T09:32:23;13.60;99.90
35523;DHT22;61478;50.820;4.330;2023-04-25T09:34:55;13.40;99.90
35523;DHT22;61478;50.820;4.330;2023-04-25T09:37:28;13.40;99.90
35523;DHT22;61478;50.820;4.330;2023-04-25T09:39:56;13.60;99.90
35523;DHT22;61478;50.820;4.330;2023-04-25T09:42:23;13.70;99.90
35523;DHT22;61478;50.820;4.330;2023-04-25T09:44:52;13.70;99.90
35523;DHT22;61478;50.820;4.330;2023-04-25T09:47:19;13.70;99.90
35523;DHT22;61478;50.820;4.330;2023-04-25T09:49:47;13.50;99.90
35523;DHT22;61478;50.820;4.330;2023-04-25T09:52:18;13.80;99.90
35523;DHT22;61478;50.820;4.330;2023-04-25T09:54:46;14.10;99.90
35523;DHT22;61478;50.820;4.330;2023-04-25T09:57:17;14.30;99.90
35523;DHT22;61478;50.820;4.330;2023-04-25T09:59:47;14.60;99.90
35523;DHT22;61478;50.820;4.330;2023-04-25T10:02:15;15.00;99.90
35523;DHT22;61478;50.820;4.330;2023-04-25T10:04:42;15.40;99.90
35523;DHT22;61478;50.820;4.330;2023-04-25T10:07:11;15.60;99.90
35523;DHT22;61478;50.820;4.330;2023-04-25T10:09:39;16.40;99.90
35523;DHT22;61478;50.820;4.330;2023-04-25T10:12:06;17.00;98.70
35523;DHT22;61478;50.820;4.330;2023-04-25T10:14:33;17.50;97.50
35523;DHT22;61478;50.820;4.330;2023-04-25T10:17:00;18.10;96.20
35523;DHT22;61478;50.820;4.330;2023-04-25T10:19:27;18.70;92.10
35523;DHT22;61478;50.820;4.330;2023-04-25T10:22:07;18.40;92.90
35523;DHT22;61478;50.820;4.330;2023-04-25T10:24:35;18.20;92.00
35523;DHT22;61478;50.820;4.330;2023-04-25T10:27:02;18.00;92.50
35523;DHT22;61478;50.820;4.330;2023-04-25T10:29:29;18.50;88.90
35523;DHT22;61478;50.820;4.330;2023-04-25T10:31:54;18.80;82.70
35523;DHT22;61478;50.820;4.330;2023-04-25T10:34:25;19.10;80.70
35523;DHT22;61478;50.820;4.330;2023-04-25T10:37:02;19.30;83.60
35523;DHT22;61478;50.820;4.330;2023-04-25T10:39:29;19.40;77.20
35523;DHT22;61478;50.820;4.330;2023-04-25T10:41:58;19.10;75.20
35523;DHT22;61478;50.820;4.330;2023-04-25T10:44:29;18.70;74.10
35523;DHT22;61478;50.820;4.330;2023-04-25T10:46:56;18.30;77.80
35523;DHT22;61478;50.820;4.330;2023-04-25T10:49:37;16.60;83.40
35523;DHT22;61478;50.820;4.330;2023-04-25T10:52:25;16.20;86.90
35523;DHT22;61478;50.820;4.330;2023-04-25T10:54:56;16.40;85.10
35523;DHT22;61478;50.820;4.330;2023-04-25T10:57:42;16.30;87.40
35523;DHT22;61478;50.820;4.330;2023-04-25T11:00:14;16.00;90.10
35523;DHT22;61478;50.820;4.330;2023-04-25T11:05:29;15.70;92.90
35523;DHT22;61478;50.820;4.330;2023-04-25T11:07:57;15.60;96.70
35523;DHT22;61478;50.820;4.330;2023-04-25T11:10:31;15.30;99.50
35523;DHT22;61478;50.820;4.330;2023-04-25T11:12:58;14.90;99.90
35523;DHT22;61478;50.820;4.330;2023-04-25T11:15:25;14.80;99.90
35523;DHT22;61478;50.820;4.330;2023-04-25T11:17:52;14.80;99.90
35523;DHT22;61478;50.820;4.330;2023-04-25T11:20:18;14.70;99.90
35523;DHT22;61478;50.820;4.330;2023-04-25T11:22:46;14.70;99.90
35523;DHT22;61478;50.820;4.330;2023-04-25T11:25:13;14.60;99.90
35523;DHT22;61478;50.820;4.330;2023-04-25T11:27:52;14.20;99.90
35523;DHT22;61478;50.820;4.330;2023-04-25T11:30:19;14.10;99.90
35523;DHT22;61478;50.820;4.330;2023-04-25T11:32:45;14.40;99.90
35523;DHT22;61478;50.820;4.330;2023-04-25T11:35:11;14.40;99.90
35523;DHT22;61478;50.820;4.330;2023-04-25T11:37:39;14.60;99.90
35523;DHT22;61478;50.820;4.330;2023-04-25T11:40:06;14.70;99.90
35523;DHT22;61478;50.820;4.330;2023-04-25T11:42:33;14.80;99.90
35523;DHT22;61478;50.820;4.330;2023-04-25T11:44:59;14.90;99.90
35523;DHT22;61478;50.820;4.330;2023-04-25T11:47:30;15.00;98.90
35523;DHT22;61478;50.820;4.330;2023-04-25T11:50:01;15.00;97.60
35523;DHT22;61478;50.820;4.330;2023-04-25T11:52:45;14.80;96.80
35523;DHT22;61478;50.820;4.330;2023-04-25T11:55:19;14.60;98.40
35523;DHT22;61478;50.820;4.330;2023-04-25T11:57:47;14.60;99.00
35523;DHT22;61478;50.820;4.330;2023-04-25T12:00:19;14.70;98.30
35523;DHT22;61478;50.820;4.330;2023-04-25T12:02:50;14.90;96.40
35523;DHT22;61478;50.820;4.330;2023-04-25T12:05:16;15.00;94.80
35523;DHT22;61478;50.820;4.330;2023-04-25T12:07:42;15.30;94.10
35523;DHT22;61478;50.820;4.330;2023-04-25T12:10:10;15.40;92.90
35523;DHT22;61478;50.820;4.330;2023-04-25T12:12:38;15.50;92.00
35523;DHT22;61478;50.820;4.330;2023-04-25T12:15:18;15.50;91.90
35523;DHT22;61478;50.820;4.330;2023-04-25T12:17:51;15.50;92.80
35523;DHT22;61478;50.820;4.330;2023-04-25T12:20:23;15.50;93.50
35523;DHT22;61478;50.820;4.330;2023-04-25T12:22:51;15.60;95.10
35523;DHT22;61478;50.820;4.330;2023-04-25T12:25:42;14.90;95.90
35523;DHT22;61478;50.820;4.330;2023-04-25T12:30:59;14.60;99.90
35523;DHT22;61478;50.820;4.330;2023-04-25T12:33:28;14.90;99.90
35523;DHT22;61478;50.820;4.330;2023-04-25T12:35:54;15.10;98.70
35523;DHT22;61478;50.820;4.330;2023-04-25T12:38:26;15.20;97.80
35523;DHT22;61478;50.820;4.330;2023-04-25T12:40:53;15.30;96.40
35523;DHT22;61478;50.820;4.330;2023-04-25T12:43:19;15.20;91.80
35523;DHT22;61478;50.820;4.330;2023-04-25T12:45:51;15.20;91.80
35523;DHT22;61478;50.820;4.330;2023-04-25T12:48:17;15.30;92.30
35523;DHT22;61478;50.820;4.330;2023-04-25T12:50:44;15.30;93.70
35523;DHT22;61478;50.820;4.330;2023-04-25T12:53:10;15.60;92.60
35523;DHT22;61478;50.820;4.330;2023-04-25T12:55:37;16.10;91.40
35523;DHT22;61478;50.820;4.330;2023-04-25T12:58:03;16.30;90.90
35523;DHT22;61478;50.820;4.330;2023-04-25T13:00:30;16.50;90.70
35523;DHT22;61478;50.820;4.330;2023-04-25T13:02:56;16.30;90.70
35523;DHT22;61478;50.820;4.330;2023-04-25T13:05:22;16.20;90.70
35523;DHT22;61478;50.820;4.330;2023-04-25T13:07:48;16.20;90.70
35523;DHT22;61478;50.820;4.330;2023-04-25T13:10:15;16.20;91.50
35523;DHT22;61478;50.820;4.330;2023-04-25T13:12:41;16.10;90.90
35523;DHT22;61478;50.820;4.330;2023-04-25T13:15:07;16.00;91.00
35523;DHT22;61478;50.820;4.330;2023-04-25T13:17:34;15.70;90.70
35523;DHT22;61478;50.820;4.330;2023-04-25T13:20:00;15.60;90.90
35523;DHT22;61478;50.820;4.330;2023-04-25T13:22:26;15.60;92.00
35523;DHT22;61478;50.820;4.330;2023-04-25T13:24:52;15.40;91.30
35523;DHT22;61478;50.820;4.330;2023-04-25T13:27:18;15.20;91.50
35523;DHT22;61478;50.820;4.330;2023-04-25T13:29:44;15.30;91.50
35523;DHT22;61478;50.820;4.330;2023-04-25T13:32:10;15.30;92.10
35523;DHT22;61478;50.820;4.330;2023-04-25T13:34:39;15.20;92.20
35523;DHT22;61478;50.820;4.330;2023-04-25T13:37:05;15.10;89.80
35523;DHT22;61478;50.820;4.330;2023-04-25T13:39:32;15.20;89.10
35523;DHT22;61478;50.820;4.330;2023-04-25T13:42:01;15.10;89.80
35523;DHT22;61478;50.820;4.330;2023-04-25T13:44:27;15.30;89.50
35523;DHT22;61478;50.820;4.330;2023-04-25T13:46:54;15.50;87.50
35523;DHT22;61478;50.820;4.330;2023-04-25T13:49:20;15.60;90.70
35523;DHT22;61478;50.820;4.330;2023-04-25T13:51:46;15.70;91.10
35523;DHT22;61478;50.820;4.330;2023-04-25T13:54:11;15.90;87.70
35523;DHT22;61478;50.820;4.330;2023-04-25T13:56:38;16.20;89.00
35523;DHT22;61478;50.820;4.330;2023-04-25T13:59:07;16.20;90.00
35523;DHT22;61478;50.820;4.330;2023-04-25T14:01:33;16.30;91.90
35523;DHT22;61478;50.820;4.330;2023-04-25T14:04:01;16.20;90.70
35523;DHT22;61478;50.820;4.330;2023-04-25T14:06:29;16.00;90.50
35523;DHT22;61478;50.820;4.330;2023-04-25T14:08:56;16.00;90.50
35523;DHT22;61478;50.820;4.330;2023-04-25T14:11:22;16.00;90.70
35523;DHT22;61478;50.820;4.330;2023-04-25T14:13:48;16.00;90.30
35523;DHT22;61478;50.820;4.330;2023-04-25T14:16:15;16.00;90.00
35523;DHT22;61478;50.820;4.330;2023-04-25T14:18:41;15.70;89.10
35523;DHT22;61478;50.820;4.330;2023-04-25T14:21:10;15.60;91.10
35523;DHT22;61478;50.820;4.330;2023-04-25T14:23:36;15.60;88.90
35523;DHT22;61478;50.820;4.330;2023-04-25T14:26:02;15.50;90.00
35523;DHT22;61478;50.820;4.330;2023-04-25T14:28:28;15.40;90.60
35523;DHT22;61478;50.820;4.330;2023-04-25T14:30:54;15.30;90.40
35523;DHT22;61478;50.820;4.330;2023-04-25T14:33:20;15.30;88.40
35523;DHT22;61478;50.820;4.330;2023-04-25T14:35:46;15.10;90.20
35523;DHT22;61478;50.820;4.330;2023-04-25T14:38:12;15.10;89.00
35523;DHT22;61478;50.820;4.330;2023-04-25T14:40:38;15.10;88.50
35523;DHT22;61478;50.820;4.330;2023-04-25T14:43:05;15.10;88.70
35523;DHT22;61478;50.820;4.330;2023-04-25T14:45:31;15.20;88.30
35523;DHT22;61478;50.820;4.330;2023-04-25T14:47:57;15.30;90.00
35523;DHT22;61478;50.820;4.330;2023-04-25T14:50:23;15.40;90.70
35523;DHT22;61478;50.820;4.330;2023-04-25T14:52:49;15.40;90.60
35523;DHT22;61478;50.820;4.330;2023-04-25T14:55:15;15.40;90.10
35523;DHT22;61478;50.820;4.330;2023-04-25T14:57:41;15.30;91.00
35523;DHT22;61478;50.820;4.330;2023-04-25T15:00:07;15.20;91.40
35523;DHT22;61478;50.820;4.330;2023-04-25T15:02:36;15.10;91.70
35523;DHT22;61478;50.820;4.330;2023-04-25T15:05:02;15.10;91.80
35523;DHT22;61478;50.820;4.330;2023-04-25T15:07:29;15.00;91.20
35523;DHT22;61478;50.820;4.330;2023-04-25T15:09:55;15.00;91.30
35523;DHT22;61478;50.820;4.330;2023-04-25T15:12:22;15.00;90.90
35523;DHT22;61478;50.820;4.330;2023-04-25T15:14:48;15.00;98.50
35523;DHT22;61478;50.820;4.330;2023-04-25T15:17:14;15.10;92.50
35523;DHT22;61478;50.820;4.330;2023-04-25T15:19:40;15.10;90.70
35523;DHT22;61478;50.820;4.330;2023-04-25T15:22:06;15.20;90.10
35523;DHT22;61478;50.820;4.330;2023-04-25T15:24:32;15.10;90.60
35523;DHT22;61478;50.820;4.330;2023-04-25T15:26:58;15.20;90.10
35523;DHT22;61478;50.820;4.330;2023-04-25T15:29:24;15.20;90.10
35523;DHT22;61478;50.820;4.330;2023-04-25T15:31:51;15.00;90.30
35523;DHT22;61478;50.820;4.330;2023-04-25T15:34:17;14.80;90.10
35523;DHT22;61478;50.820;4.330;2023-04-25T15:36:43;14.80;90.90
35523;DHT22;61478;50.820;4.330;2023-04-25T15:39:09;14.80;91.50